Latest Weather Observations for Combienbar

IDV60801

Issued at 12:35 pm EDT Wednesday 22 October 2014 (issued every 30 minutes, with the page automatically refreshed every 10 minutes)

About weather observations | Map of weather stations | Latest weather observations for VIC | Other Formats
Station Details ID: 084143 Name: COMBIENBAR AWS Lat: -37.34 Lon: 149.02 Height: 640.0 m
Data from the previous 72 hours. | See also: Recent months at Combienbar
Date/Time
EDT
Temp
°C
App
Temp
°C
Dew
Point
Rel
Hum
%
Delta-T
°C
Wind Press
QNH
hPa
Press
MSL
hPa
Rain
since 9 am
mm
Dir
 
Spd
km/h
Gust
km/h
Spd
kts
Gust
kts
22/12:30pm 23.4 24.4 13.3 53 6.0 SSW 0 0 0 0 1021.4 1020.5 0.0
22/12:00pm 22.3 23.2 12.8 55 5.6 SW 0 4 0 2 1021.8 1020.9 0.0
22/11:30am 22.5 23.2 13.3 56 5.5 SE 2 6 1 3 1022.1 1021.3 0.0
22/11:00am 21.6 22.8 13.8 61 4.6 CALM 0 0 0 0 1022.6 1021.8 0.0
22/10:30am 21.4 22.2 13.8 62 4.5 ESE 2 4 1 2 1022.9 1022.0 0.0
22/10:00am 20.6 20.4 11.8 57 5.0 ESE 4 6 2 3 1023.2 1022.3 0.0
22/09:30am 21.6 23.0 14.5 64 4.3 ENE 0 0 0 0 1023.1 1022.2 0.0
22/09:00am 20.1 21.1 13.3 65 4.0 CALM 0 0 0 0 1023.1 1022.2 0.0
22/08:30am 19.6 20.4 12.4 63 4.2 CALM 0 0 0 0 1023.2 1022.3 0.0
22/08:00am 18.4 19.0 11.9 66 3.7 CALM 0 0 0 0 1023.2 1022.3 0.0
22/07:30am 17.3 17.9 11.8 70 3.1 CALM 0 0 0 0 1023.1 1022.2 0.0
22/07:00am 15.2 15.2 9.8 70 2.9 CALM 0 0 0 0 1023.0 1022.1 0.0
22/06:30am 14.0 13.8 9.0 72 2.6 CALM 0 0 0 0 1023.1 1022.2 0.0
22/06:00am 13.8 13.5 8.8 72 2.6 W 0 6 0 3 1023.1 1022.2 0.0
22/05:30am 13.5 12.9 9.0 74 2.4 W 2 2 1 1 1023.0 1022.1 0.0
22/05:00am 11.8 11.3 7.9 77 2.0 CALM 0 2 0 1 1023.0 1022.1 0.0
22/04:30am 12.5 11.7 8.0 74 2.3 NNW 2 7 1 4 1023.2 1022.3 0.0
22/04:00am 13.0 11.8 8.1 72 2.5 NNW 4 9 2 5 1023.5 1022.7 0.0
22/03:30am 11.7 10.8 7.8 77 2.0 N 2 7 1 4 1023.8 1023.0 0.0
22/03:00am 11.3 10.3 7.4 77 1.9 NE 2 7 1 4 1024.1 1023.3 0.0
22/02:30am 11.9 11.0 7.8 76 2.1 NNW 2 7 1 4 1024.6 1023.7 0.0
22/02:00am 11.4 10.4 7.3 76 2.0 N 2 7 1 4 1025.0 1024.2 0.0
22/01:30am 11.3 10.3 7.2 76 2.0 N 2 9 1 5 1025.3 1024.5 0.0
22/01:00am 11.0 9.9 7.1 77 1.9 S 2 4 1 2 1025.8 1025.0 0.0
22/12:30am 10.8 10.2 7.3 79 1.7 CALM 0 4 0 2 1026.3 1025.5 0.0
22/12:00am 10.2 9.1 7.1 81 1.5 E 2 6 1 3 1026.6 1025.8 0.0
 
Date/Time
EDT
Temp
°C
App
Temp
°C
Dew
Point
Rel
Hum
%
Delta-T
°C
Wind Press
QNH
hPa
Press
MSL
hPa
Rain
since 9 am
mm
Dir
 
Spd
km/h
Gust
km/h
Spd
kts
Gust
kts
21/11:30pm 10.4 9.7 6.9 79 1.7 CALM 0 6 0 3 1026.8 1026.0 0.0
21/11:00pm 10.3 9.6 6.8 79 1.7 CALM 0 4 0 2 1027.2 1026.4 0.0
21/10:30pm 9.9 9.1 6.6 80 1.6 CALM 0 4 0 2 1027.3 1026.5 0.0
21/10:00pm 10.4 9.7 6.9 79 1.7 CALM 0 0 0 0 1027.4 1026.7 0.0
21/09:30pm 10.1 9.4 7.0 81 1.5 CALM 0 2 0 1 1027.3 1026.5 0.0
21/09:00pm 10.5 9.1 7.4 81 1.5 NNE 4 6 2 3 1027.3 1026.5 0.0
21/08:30pm 11.0 9.7 7.7 80 1.7 NNE 4 6 2 3 1027.2 1026.4 0.0
21/08:00pm 11.7 10.4 7.8 77 2.0 NNE 4 6 2 3 1027.2 1026.4 0.0
21/07:30pm 12.7 11.5 8.0 73 2.4 NNE 4 9 2 5 1027.1 1026.3 0.0
21/07:00pm 13.7 12.2 8.3 70 2.8 NNE 6 9 3 5 1026.9 1026.1 0.0
21/06:30pm 14.4 12.8 8.6 68 3.0 NNE 7 13 4 7 1026.7 1025.9 0.0
21/06:00pm 15.9 14.3 8.6 62 3.8 NNE 7 15 4 8 1026.8 1026.0 0.0
21/05:30pm 17.9 16.4 9.3 57 4.6 NNE 7 13 4 7 1026.8 1026.0 0.0
21/05:00pm 18.4 17.1 9.2 55 4.9 NNE 6 13 3 7 1026.9 1026.1 0.0
21/04:30pm 18.7 17.4 9.8 56 4.9 NNE 7 13 4 7 1027.1 1026.3 0.0
21/04:00pm 19.5 18.3 9.7 53 5.4 NNE 6 13 3 7 1027.1 1026.3 0.0
21/03:30pm 19.4 18.1 9.3 52 5.5 NNE 6 13 3 7 1027.4 1026.7 0.0
21/03:00pm 20.0 18.8 9.6 51 5.7 NNE 6 13 3 7 1027.7 1027.0 0.0
21/02:30pm 19.9 18.8 9.8 52 5.6 NNE 6 13 3 7 1028.2 1027.4 0.0
21/02:00pm 18.8 17.4 9.0 53 5.3 NNE 6 11 3 6 1028.7 1028.0 0.0
21/01:30pm 18.9 17.5 8.8 52 5.4 NNE 6 19 3 10 1029.1 1028.4 0.0
21/01:00pm 17.0 15.1 7.6 54 4.9 NNE 7 20 4 11 1029.4 1028.7 0.0
21/12:30pm 18.1 16.0 8.1 52 5.3 NNE 9 15 5 8 1029.8 1029.0 0.0
21/12:00pm 16.8 15.1 8.2 57 4.5 NNE 7 24 4 13 1030.2 1029.5 0.0
21/11:30am 17.2 15.3 8.9 58 4.4 NNE 9 17 5 9 1030.5 1029.8 0.0
21/11:00am 16.4 13.8 7.6 56 4.5 NNE 11 33 6 18 1030.7 1030.0 0.0
21/10:30am 16.1 13.8 7.6 57 4.4 NNE 9 20 5 11 1030.9 1030.2 0.0
21/10:00am 14.5 12.3 6.1 57 4.1 NNE 7 15 4 8 1030.8 1030.1 0.0
21/09:30am 14.0 11.0 6.1 59 3.9 NNE 11 22 6 12 1030.9 1030.2 0.0
21/09:00am 13.7 11.3 7.2 65 3.3 NNE 9 28 5 15 1030.6 1029.9 0.0
21/08:30am 12.1 9.9 6.2 67 2.9 NNE 7 15 4 8 1030.4 1029.7 0.0
21/08:00am 10.4 8.1 5.8 73 2.2 NNE 7 15 4 8 1030.4 1029.7 0.0
21/07:30am 8.7 6.3 5.1 78 1.7 NNE 7 20 4 11 1030.1 1029.4 0.0
21/07:00am 7.2 4.8 4.3 82 1.3 NNE 6 19 3 10 1030.0 1029.2 0.0
21/06:30am 5.9 3.8 3.9 87 0.9 N 4 17 2 9 1030.0 1029.2 0.0
21/06:00am 5.9 3.4 3.9 87 0.9 N 6 11 3 6 1029.9 1029.1 0.0
21/05:30am 6.0 3.9 4.0 87 0.9 NNE 4 11 2 6 1029.8 1029.0 0.0
21/05:00am 6.3 3.3 4.3 87 0.9 NNE 9 20 5 11 1030.0 1029.2 0.0
21/04:30am 6.1 3.5 4.1 87 0.9 NNE 7 19 4 10 1030.0 1029.2 0.0
21/04:00am 6.3 3.7 4.1 86 1.0 NNE 7 13 4 7 1030.2 1029.5 0.0
21/03:30am 6.3 3.7 4.3 87 0.9 NNE 7 15 4 8 1030.4 1029.7 0.0
21/03:00am 6.3 3.7 4.1 86 1.0 NNE 7 13 4 7 1030.8 1030.1 0.0
21/02:30am 6.6 4.2 4.1 84 1.1 NNE 6 13 3 7 1031.0 1030.3 0.0
21/02:00am 7.4 5.4 4.5 82 1.3 NNE 4 9 2 5 1031.4 1030.6 0.0
21/01:30am 7.7 5.4 4.7 81 1.4 NNE 6 11 3 6 1031.7 1031.0 0.0
21/01:00am 7.8 5.9 4.9 82 1.3 NNE 4 7 2 4 1031.9 1031.2 0.0
21/12:30am 7.7 5.2 5.0 83 1.2 NNE 7 11 4 6 1032.1 1031.4 0.0
21/12:00am 7.9 6.1 5.2 83 1.2 NNE 4 9 2 5 1032.3 1031.6 0.0
 
Date/Time
EDT
Temp
°C
App
Temp
°C
Dew
Point
Rel
Hum
%
Delta-T
°C
Wind Press
QNH
hPa
Press
MSL
hPa
Rain
since 9 am
mm
Dir
 
Spd
km/h
Gust
km/h
Spd
kts
Gust
kts
20/11:30pm 8.0 6.2 5.5 84 1.2 NNE 4 9 2 5 1032.4 1031.7 0.0
20/11:00pm 8.0 5.8 5.5 84 1.2 NNE 6 15 3 8 1032.4 1031.7 0.0
20/10:30pm 8.1 6.0 5.6 84 1.2 NNE 6 11 3 6 1032.3 1031.6 0.0
20/10:00pm 8.3 6.2 5.8 84 1.2 NNE 6 9 3 5 1032.5 1031.8 0.0
20/09:30pm 8.3 6.6 5.8 84 1.2 NNE 4 9 2 5 1032.4 1031.7 0.0
20/09:00pm 8.4 6.7 6.0 85 1.1 NNE 4 9 2 5 1032.4 1031.7 0.0
20/08:30pm 8.6 6.6 6.2 85 1.1 NNE 6 15 3 8 1032.1 1031.4 0.0
20/08:00pm 8.8 6.8 6.3 84 1.2 NNE 6 11 3 6 1031.9 1031.2 0.0
20/07:30pm 8.9 6.7 6.0 82 1.4 NNE 7 13 4 7 1031.6 1030.9 0.0
20/07:00pm 9.2 7.0 6.1 81 1.5 NNE 7 11 4 6 1031.4 1030.6 0.0
20/06:30pm 9.7 7.7 6.4 80 1.6 NNE 6 11 3 6 1031.2 1030.4 0.0
20/06:00pm 10.2 8.3 6.7 79 1.7 NE 6 11 3 6 1031.0 1030.3 0.0
20/05:30pm 10.7 9.7 7.2 79 1.7 NNE 2 7 1 4 1031.0 1030.3 0.0
20/05:00pm 11.5 10.5 7.4 76 2.0 NNE 2 6 1 3 1030.7 1030.0 0.0
20/04:30pm 11.9 10.6 7.8 76 2.1 NNE 4 7 2 4 1030.4 1029.7 0.0
20/04:00pm 13.1 12.4 8.4 73 2.4 NNE 2 6 1 3 1030.3 1029.6 0.0
20/03:30pm 13.6 12.9 8.4 71 2.7 NNE 2 4 1 2 1030.4 1029.7 0.0
20/03:00pm 13.0 11.5 8.5 74 2.3 E 6 11 3 6 1030.7 1030.0 0.0
20/02:30pm 13.4 11.8 7.8 69 2.9 E 6 9 3 5 1030.8 1030.1 0.0
20/02:00pm 12.2 11.2 7.3 72 2.4 ESE 2 9 1 5 1031.3 1030.5 0.0
20/01:30pm 12.7 12.1 7.4 70 2.7 CALM 0 4 0 2 1031.5 1030.8 0.0
20/01:00pm 14.2 13.0 6.6 60 3.8 NNE 2 6 1 3 1031.4 1030.6 0.0
20/12:30pm 12.8 11.4 5.7 62 3.5 ESE 2 9 1 5 1031.8 1031.1 0.0
20/12:00pm 12.1 10.9 6.6 69 2.7 SSW 2 4 1 2 1032.2 1031.5 0.0
20/11:30am 12.2 11.1 6.7 69 2.7 SW 2 6 1 3 1032.4 1031.7 0.0
20/11:00am 12.5 11.5 7.4 71 2.5 SSW 2 6 1 3 1032.4 1031.7 0.0
20/10:30am 10.7 9.8 6.1 73 2.2 CALM 0 4 0 2 1032.4 1031.7 0.0
20/10:00am 11.3 10.2 6.8 74 2.2 SSW 2 2 1 1 1032.1 1031.4 0.0
20/09:30am 9.6 8.6 5.6 76 1.9 CALM 0 6 0 3 1031.8 1031.1 0.0
20/09:00am 8.9 8.0 6.0 82 1.4 CALM 0 0 0 0 1031.6 1030.9 0.2
20/08:30am 8.2 7.2 5.7 84 1.2 CALM 0 4 0 2 1031.2 1030.4 0.2
20/08:00am 7.6 6.3 5.9 89 0.8 SW 2 4 1 2 1030.7 1030.0 0.2
20/07:30am 7.1 6.0 5.3 88 0.8 CALM 0 2 0 1 1030.4 1029.7 0.2
20/07:00am 6.8 5.0 5.3 90 0.7 SW 4 9 2 5 1030.2 1029.5 0.2
20/06:30am 7.0 5.7 5.8 92 0.6 SW 2 6 1 3 1029.8 1029.0 0.2
20/06:00am 7.2 5.0 5.3 88 0.9 SW 6 9 3 5 1029.3 1028.6 0.2
20/05:30am 7.2 5.5 5.7 90 0.7 SSW 4 7 2 4 1028.8 1028.1 0.2
20/05:00am 7.3 6.0 6.1 92 0.6 SSW 2 4 1 2 1028.7 1028.0 0.2
20/04:30am 7.5 5.3 5.5 87 0.9 SW 6 9 3 5 1028.5 1027.7 0.2
20/04:00am 7.5 5.3 6.0 90 0.7 SW 7 15 4 8 1028.1 1027.3 0.2
20/03:30am 7.5 5.1 7.1 97 0.2 SW 9 20 5 11 1027.9 1027.1 0.2
20/03:00am 7.4 5.0 7.0 97 0.2 SW 9 17 5 9 1027.9 1027.1 0.0
20/02:30am 8.3 5.7 7.9 97 0.2 SSW 11 20 6 11 1027.4 1026.7 0.0
20/02:00am 9.0 7.9 8.6 97 0.2 SSW 4 7 2 4 1027.2 1026.4 0.0
20/01:30am 8.9 7.8 8.5 97 0.2 SSW 4 9 2 5 1027.2 1026.4 0.0
20/01:00am 9.2 7.7 8.6 96 0.3 SSW 6 11 3 6 1027.0 1026.2 0.0
20/12:30am 9.9 8.5 8.8 93 0.6 SSW 6 11 3 6 1026.8 1026.0 0.0
20/12:00am 10.6 9.6 9.0 90 0.8 SSW 4 7 2 4 1026.3 1025.5 0.0
 
Date/Time
EDT
Temp
°C
App
Temp
°C
Dew
Point
Rel
Hum
%
Delta-T
°C
Wind Press
QNH
hPa
Press
MSL
hPa
Rain
since 9 am
mm
Dir
 
Spd
km/h
Gust
km/h
Spd
kts
Gust
kts
19/11:30pm 10.9 10.0 9.2 89 0.9 SSW 4 6 2 3 1025.9 1025.1 0.0
19/11:00pm 11.3 10.3 9.0 86 1.2 SSW 4 7 2 4 1025.9 1025.1 0.0
19/10:30pm 12.0 11.5 9.2 83 1.5 SSW 2 4 1 2 1025.6 1024.8 0.0
19/10:00pm 13.0 11.7 9.1 77 2.0 SSW 6 9 3 5 1025.3 1024.5 0.0
19/09:30pm 17.3 15.7 7.9 54 4.9 SW 6 13 3 7 1024.1 1023.3 0.0
19/09:00pm 20.4 18.2 3.6 33 8.2 W 4 9 2 5 1023.6 1022.8 0.0
19/08:30pm 20.3 18.3 4.4 35 7.9 WSW 4 9 2 5 1023.4 1022.6 0.0
19/08:00pm 19.8 17.7 3.9 35 7.8 SW 4 9 2 5 1022.9 1022.0 0.0
19/07:30pm 20.3 18.7 4.4 35 7.9 WSW 2 6 1 3 1022.5 1021.7 0.0
19/07:00pm 21.1 18.8 4.6 34 8.3 WSW 6 17 3 9 1022.0 1021.2 0.0
19/06:30pm 21.3 20.2 6.8 39 7.6 SW 2 4 1 2 1021.7 1020.8 0.0
19/06:00pm 22.4 21.5 9.2 43 7.3 SW 4 7 2 4 1021.5 1020.6 0.0
19/05:30pm 25.0 25.4 11.2 42 8.0 CALM 0 0 0 0 1021.4 1020.5 0.0
19/05:00pm 25.3 24.9 8.3 34 9.4 CALM 0 0 0 0 1021.3 1020.4 0.0
19/04:30pm 25.4 24.5 6.1 29 10.3 CALM 0 0 0 0 1021.3 1020.4 0.0
19/04:00pm 25.1 24.9 9.0 36 9.0 CALM 0 0 0 0 1021.3 1020.4 0.0
19/03:30pm 24.4 24.6 10.7 42 7.9 CALM 0 0 0 0 1021.5 1020.6 0.0
19/03:00pm 25.3 24.7 10.4 39 8.5 ENE 4 7 2 4 1021.8 1020.9 0.0
19/02:30pm 25.6 25.0 9.0 35 9.3 NE 2 6 1 3 1022.1 1021.3 0.0
19/02:00pm 24.5 23.9 7.6 34 9.2 CALM 0 0 0 0 1022.5 1021.7 0.0
19/01:30pm 24.5 24.6 10.0 40 8.2 CALM 0 0 0 0 1023.1 1022.2 0.0
19/01:00pm 25.6 24.6 5.8 28 10.5 CALM 0 2 0 1 1023.2 1022.3 0.0

Other Formats:

Comma delimited format used in spreadsheet applications
http://www.bom.gov.au/fwo/IDV60801/IDV60801.94914.axf

JavaScript Object Notation format (JSON) in row-major order
http://www.bom.gov.au/fwo/IDV60801/IDV60801.94914.json